PABE/BET METAR and TAF weather

Enter ICAO airport designator
Station Type Date Time Source
PABE METAR 2020/08/05 15:53 UTC NOAA

PABE 051553Z 09004KT 10SM OVC025 11/09 A2967 RMK AO2 SLP047 T01060094 $


Station Type Date Time Source
PABE Decoded METAR 2020/08/05 15:53 UTC NOAA

BETHEL AIRPORT, AK, United States (PABE) 60-47N 161-50W 46M
Aug 05, 2020 - 11:53 AM EDT / 2020.08.05 1553 UTC
Wind: from the E (090 degrees) at 5 MPH (4 KT):0
Visibility: 10 mile(s):0
Sky conditions: overcast
Temperature: 51.1 F (10.6 C)
Dew Point: 48.9 F (9.4 C)
Relative Humidity: 92%
Pressure (altimeter): 29.67 in. Hg (1004 hPa)
ob: PABE 051553Z 09004KT 10SM OVC025 11/09 A2967 RMK AO2 SLP047 T01060094
cycle: 16

Station Type Date Time Source
PABE TAF 2020/08/05 12:34 UTC NOAA

TAF PABE 051131Z 0512/0612 VRB05KT P6SM SCT025 BKN050 BKN130
FM051700 14009KT P6SM -SHRA FEW030 OVC050
FM060100 12009KT 4SM -RA BR SCT015 BKN025 OVC050

Example: see airport list